createdAt,value
2019-02-25T00:00:07.540Z,27.87
2019-02-25T00:02:40.689Z,28.20
2019-02-25T00:05:15.009Z,27.73
2019-02-25T00:07:46.647Z,27.33
2019-02-25T00:10:18.338Z,25.40
2019-02-25T00:12:49.907Z,27.50
2019-02-25T00:15:21.546Z,27.33
2019-02-25T00:17:53.191Z,28.00
2019-02-25T00:20:24.627Z,29.40
2019-02-25T00:22:56.133Z,27.37
2019-02-25T00:25:27.800Z,27.50
2019-02-25T00:27:59.311Z,28.77
2019-02-25T00:30:30.800Z,27.70
2019-02-25T00:33:02.311Z,29.10
2019-02-25T00:35:33.806Z,29.07
2019-02-25T00:38:05.285Z,26.77
2019-02-25T00:40:36.870Z,27.93
2019-02-25T00:43:08.389Z,27.57
2019-02-25T00:45:39.916Z,27.67
2019-02-25T00:48:11.666Z,27.83
2019-02-25T00:50:43.176Z,29.30
2019-02-25T00:53:14.621Z,27.27
2019-02-25T00:55:46.176Z,28.53
2019-02-25T00:58:17.662Z,26.93
2019-02-25T01:00:49.526Z,26.87
2019-02-25T01:03:20.969Z,25.97
2019-02-25T01:05:52.494Z,26.67
2019-02-25T01:08:24.096Z,26.67
2019-02-25T01:10:55.581Z,26.70
2019-02-25T01:13:27.106Z,25.77
2019-02-25T01:15:58.577Z,24.63
2019-02-25T01:18:30.092Z,27.00
2019-02-25T01:21:01.585Z,26.83
2019-02-25T01:23:33.118Z,27.00
2019-02-25T01:26:04.558Z,26.80
2019-02-25T01:28:36.044Z,26.33
2019-02-25T01:31:07.533Z,25.67
2019-02-25T01:33:39.229Z,28.20
2019-02-25T01:36:10.677Z,26.37
2019-02-25T01:38:43.666Z,26.83
2019-02-25T01:41:15.182Z,26.90
2019-02-25T01:43:46.670Z,26.27
2019-02-25T01:46:18.124Z,28.37
2019-02-25T01:48:49.673Z,26.53
2019-02-25T01:51:22.146Z,26.23
2019-02-25T01:53:53.795Z,28.73
2019-02-25T01:56:25.464Z,29.00
2019-02-25T01:58:56.884Z,27.13
2019-02-25T02:01:28.308Z,28.10
2019-02-25T02:03:59.887Z,27.00
2019-02-25T02:06:31.445Z,28.13
2019-02-25T02:09:02.998Z,25.30
2019-02-25T02:11:36.082Z,27.67
2019-02-25T02:14:07.638Z,27.37
2019-02-25T02:16:39.099Z,28.37
2019-02-25T02:19:10.630Z,26.47
2019-02-25T02:21:42.102Z,26.53
2019-02-25T02:24:13.582Z,27.10
2019-02-25T02:26:45.243Z,28.40
2019-02-25T02:29:16.756Z,27.20
2019-02-25T02:31:48.201Z,27.20
2019-02-25T02:34:19.704Z,26.37
2019-02-25T02:36:51.144Z,25.93
2019-02-25T02:39:22.668Z,25.93
2019-02-25T02:42:31.142Z,26.80
2019-02-25T02:45:15.912Z,25.27
2019-02-25T02:48:01.685Z,26.30
2019-02-25T02:50:34.252Z,27.80
2019-02-25T02:53:05.730Z,25.90
2019-02-25T02:55:37.256Z,27.00
2019-02-25T02:58:08.757Z,27.57
2019-02-25T03:00:40.303Z,27.60
2019-02-25T03:03:11.872Z,26.63
2019-02-25T03:05:43.432Z,27.47
2019-02-25T03:08:15.080Z,27.20
2019-02-25T03:10:46.570Z,27.30
2019-02-25T03:13:19.911Z,25.40
2019-02-25T03:15:51.412Z,27.93
2019-02-25T03:18:22.855Z,26.57
2019-02-25T03:20:58.076Z,28.30
2019-02-25T03:23:31.158Z,28.40
2019-02-25T03:26:05.830Z,29.70
2019-02-25T03:28:37.718Z,28.90
2019-02-25T03:31:11.136Z,30.83
2019-02-25T03:33:42.662Z,29.30
2019-02-25T03:36:15.656Z,27.97
2019-02-25T03:38:47.244Z,32.07
2019-02-25T03:41:18.773Z,30.20
2019-02-25T03:43:50.407Z,28.73
2019-02-25T03:46:22.021Z,29.43
2019-02-25T03:48:53.536Z,31.47
2019-02-25T03:51:25.055Z,31.57
2019-02-25T03:53:56.540Z,31.10
2019-02-25T03:56:28.104Z,31.10
2019-02-25T03:58:59.551Z,32.83
2019-02-25T04:01:31.035Z,30.77
2019-02-25T04:04:02.555Z,30.40
2019-02-25T04:06:34.033Z,32.17
2019-02-25T04:09:06.519Z,31.47
2019-02-25T04:11:38.092Z,32.80
2019-02-25T04:14:09.564Z,32.17
2019-02-25T04:16:41.078Z,29.80
2019-02-25T04:19:12.510Z,31.30
2019-02-25T04:21:43.984Z,30.43
2019-02-25T04:24:15.452Z,30.47
2019-02-25T04:26:46.947Z,30.40
2019-02-25T04:29:18.401Z,33.67
2019-02-25T04:31:49.883Z,30.03
2019-02-25T04:34:21.336Z,32.43
2019-02-25T04:36:52.837Z,32.10
2019-02-25T04:39:24.409Z,31.90
2019-02-25T04:41:55.923Z,31.43
2019-02-25T04:44:27.429Z,31.90
2019-02-25T04:46:58.961Z,31.37
2019-02-25T04:49:30.615Z,32.87
2019-02-25T04:52:02.279Z,30.70
2019-02-25T04:54:33.912Z,30.17
2019-02-25T04:57:05.478Z,31.33
2019-02-25T04:59:37.028Z,33.10
2019-02-25T05:02:08.525Z,30.20
2019-02-25T05:04:41.790Z,33.17
2019-02-25T05:07:13.295Z,32.87
2019-02-25T05:09:44.738Z,30.20
2019-02-25T05:12:16.229Z,32.10
2019-02-25T05:14:47.674Z,31.23
2019-02-25T05:17:19.154Z,32.50
2019-02-25T05:19:50.603Z,30.90
2019-02-25T05:22:23.171Z,28.93
2019-02-25T05:24:54.645Z,31.23
2019-02-25T05:27:26.147Z,31.10
2019-02-25T05:29:57.609Z,30.73
2019-02-25T05:32:29.087Z,32.37
2019-02-25T05:35:00.530Z,30.63
2019-02-25T05:37:32.012Z,32.70
2019-02-25T05:40:06.945Z,33.57
2019-02-25T05:42:38.466Z,31.30
2019-02-25T05:45:10.432Z,32.37
2019-02-25T05:47:41.990Z,28.53
2019-02-25T05:50:14.826Z,33.87
2019-02-25T05:52:46.415Z,28.97
2019-02-25T05:55:17.907Z,29.83
2019-02-25T05:57:49.482Z,31.47
2019-02-25T06:00:23.825Z,31.90
2019-02-25T06:02:55.377Z,30.37
2019-02-25T06:05:26.837Z,31.70
2019-02-25T06:08:00.218Z,31.63
2019-02-25T06:10:31.813Z,31.40
2019-02-25T06:13:03.287Z,31.37
2019-02-25T06:15:34.920Z,31.40
2019-02-25T06:18:06.523Z,33.93
2019-02-25T06:20:37.981Z,32.80
2019-02-25T06:23:09.476Z,32.37
2019-02-25T06:25:41.074Z,29.63
2019-02-25T06:28:12.564Z,32.13
2019-02-25T06:30:44.278Z,30.80
2019-02-25T06:33:15.856Z,30.10
2019-02-25T06:35:47.338Z,31.20
2019-02-25T06:38:19.057Z,32.87
2019-02-25T06:40:50.536Z,31.57
2019-02-25T06:43:22.154Z,33.20
2019-02-25T06:45:53.643Z,32.03
2019-02-25T06:48:25.140Z,34.07
2019-02-25T06:50:59.458Z,35.60
2019-02-25T06:53:30.922Z,34.07
2019-02-25T06:56:02.441Z,31.30
2019-02-25T06:58:33.924Z,30.73
2019-02-25T07:01:05.454Z,31.53
2019-02-25T07:03:37.004Z,33.67
2019-02-25T07:06:27.447Z,33.43
2019-02-25T07:09:07.861Z,34.47
2019-02-25T07:11:44.912Z,33.90
2019-02-25T07:14:34.262Z,33.87
2019-02-25T07:17:22.738Z,35.53
2019-02-25T07:20:16.176Z,33.00
2019-02-25T07:22:54.549Z,33.53
2019-02-25T07:25:51.092Z,33.20
2019-02-25T07:28:47.789Z,33.37
2019-02-25T07:31:50.205Z,33.70
2019-02-25T07:34:43.439Z,32.77
2019-02-25T07:37:32.782Z,34.67
2019-02-25T07:40:14.654Z,32.27
2019-02-25T07:42:55.391Z,32.50
2019-02-25T07:46:04.046Z,32.63
2019-02-25T07:49:00.096Z,31.13
2019-02-25T07:51:37.180Z,32.10
2019-02-25T07:54:30.794Z,32.90
2019-02-25T07:57:38.256Z,31.20
2019-02-25T08:00:25.439Z,32.33
2019-02-25T08:03:17.025Z,30.67
2019-02-25T08:06:26.657Z,29.70
2019-02-25T08:09:16.832Z,31.87
2019-02-25T08:12:23.214Z,30.37
2019-02-25T08:15:12.656Z,29.70
2019-02-25T08:18:02.323Z,30.50
2019-02-25T08:20:43.337Z,29.33
2019-02-25T08:23:36.595Z,29.37
2019-02-25T08:26:33.350Z,30.77
2019-02-25T08:29:24.655Z,29.10
2019-02-25T08:32:15.125Z,30.73
2019-02-25T08:35:08.276Z,29.80
2019-02-25T08:37:58.595Z,29.70
2019-02-25T08:41:20.540Z,30.60
2019-02-25T08:44:01.296Z,27.93
2019-02-25T08:46:53.843Z,28.67
2019-02-25T08:49:31.735Z,29.47
2019-02-25T08:52:04.082Z,29.47
2019-02-25T08:54:35.722Z,26.57
2019-02-25T08:57:07.631Z,26.67
2019-02-25T08:59:39.302Z,27.77
2019-02-25T09:02:14.344Z,28.00
2019-02-25T09:04:45.858Z,27.83
2019-02-25T09:07:17.436Z,26.10
2019-02-25T09:09:48.962Z,28.13
2019-02-25T09:12:20.535Z,27.40
2019-02-25T09:14:52.007Z,28.27
2019-02-25T09:17:23.501Z,28.73
2019-02-25T09:19:54.989Z,28.23
2019-02-25T09:22:26.510Z,25.90
2019-02-25T09:24:57.982Z,26.33
2019-02-25T09:27:30.050Z,30.60
2019-02-25T09:30:01.509Z,26.50
2019-02-25T09:32:40.338Z,27.00
2019-02-25T09:35:12.225Z,26.23
2019-02-25T09:37:44.252Z,28.00
2019-02-25T09:40:16.712Z,27.93
2019-02-25T09:42:48.427Z,28.90
2019-02-25T09:45:20.110Z,27.93
2019-02-25T09:47:51.709Z,28.30
2019-02-25T09:50:23.228Z,27.60
2019-02-25T09:52:54.828Z,27.73
2019-02-25T09:55:32.695Z,26.40
2019-02-25T09:58:05.727Z,30.03
2019-02-25T10:00:37.288Z,28.30
2019-02-25T10:03:10.106Z,25.13
2019-02-25T10:05:41.731Z,24.57
2019-02-25T10:08:14.339Z,26.40
2019-02-25T10:10:45.905Z,26.23
2019-02-25T10:13:18.735Z,28.20
2019-02-25T10:15:51.001Z,25.93
2019-02-25T10:18:22.751Z,26.20
2019-02-25T10:20:54.354Z,27.27
2019-02-25T10:23:26.237Z,27.43
2019-02-25T10:25:57.691Z,26.33
2019-02-25T10:28:29.177Z,27.33
2019-02-25T10:31:00.633Z,26.50
2019-02-25T10:33:32.447Z,27.40
2019-02-25T10:36:03.897Z,26.83
2019-02-25T10:38:37.463Z,27.23
2019-02-25T10:41:08.639Z,26.83
2019-02-25T10:43:40.133Z,26.27
2019-02-25T10:46:13.853Z,26.90
2019-02-25T10:48:45.141Z,27.20
2019-02-25T10:51:16.694Z,25.90
2019-02-25T10:53:49.969Z,26.10
2019-02-25T10:56:41.301Z,26.67
2019-02-25T10:59:12.899Z,26.00
2019-02-25T11:01:45.894Z,26.23
2019-02-25T11:04:20.090Z,26.97
2019-02-25T11:06:52.353Z,28.10
2019-02-25T11:09:50.354Z,26.73
2019-02-25T11:12:23.623Z,24.13
2019-02-25T11:14:55.122Z,27.53
2019-02-25T11:17:26.607Z,29.67
2019-02-25T11:19:58.658Z,27.83
2019-02-25T11:22:31.506Z,27.77
2019-02-25T11:25:03.115Z,29.03
2019-02-25T11:27:35.871Z,28.70
2019-02-25T11:30:10.228Z,26.10
2019-02-25T11:32:42.863Z,29.47
2019-02-25T11:35:15.278Z,27.07
2019-02-25T11:37:46.797Z,26.87
2019-02-25T11:40:18.498Z,29.27
2019-02-25T11:42:50.097Z,28.30
2019-02-25T11:45:25.613Z,25.30
2019-02-25T11:47:57.124Z,25.90
2019-02-25T11:50:28.619Z,27.50
2019-02-25T11:53:00.151Z,27.57
2019-02-25T11:55:31.848Z,26.50
2019-02-25T11:58:05.494Z,26.47
2019-02-25T12:00:37.220Z,26.87
2019-02-25T12:03:09.051Z,24.90
2019-02-25T12:05:40.662Z,26.63
2019-02-25T12:08:12.220Z,26.63
2019-02-25T12:10:43.886Z,28.53
2019-02-25T12:13:15.429Z,26.70
2019-02-25T12:15:46.990Z,24.57
2019-02-25T12:18:18.539Z,25.73
2019-02-25T12:20:50.061Z,24.93
2019-02-25T12:23:21.554Z,23.67
2019-02-25T12:25:57.245Z,22.40
2019-02-25T12:28:28.778Z,23.37
2019-02-25T12:31:00.285Z,25.87
2019-02-25T12:33:31.780Z,24.80
2019-02-25T12:36:03.310Z,22.40
2019-02-25T12:38:34.795Z,22.23
2019-02-25T12:41:08.717Z,22.10
2019-02-25T12:43:40.369Z,22.60
2019-02-25T12:46:12.060Z,21.33
2019-02-25T12:48:46.448Z,22.90
2019-02-25T12:51:19.844Z,19.20
2019-02-25T12:53:51.463Z,20.47
2019-02-25T12:56:23.202Z,21.00
2019-02-25T12:58:54.744Z,21.63
2019-02-25T13:01:26.242Z,20.80
2019-02-25T13:03:57.683Z,20.50
2019-02-25T13:06:29.188Z,18.30
2019-02-25T13:09:00.752Z,15.40
2019-02-25T13:11:33.926Z,15.20
2019-02-25T13:14:05.416Z,15.03
2019-02-25T13:16:36.981Z,16.50
2019-02-25T13:19:08.553Z,15.87
2019-02-25T13:21:40.019Z,15.60
2019-02-25T13:24:11.615Z,15.33
2019-02-25T13:26:43.122Z,13.50
2019-02-25T13:29:14.603Z,16.00
2019-02-25T13:31:46.140Z,16.87
2019-02-25T13:34:17.672Z,19.73
2019-02-25T13:36:49.265Z,18.70
2019-02-25T13:39:20.839Z,17.40
2019-02-25T13:41:52.527Z,16.03
2019-02-25T13:44:24.191Z,16.20
2019-02-25T13:46:55.937Z,17.40
2019-02-25T13:49:27.606Z,17.73
2019-02-25T13:51:59.697Z,13.00
2019-02-25T13:54:31.561Z,14.80
2019-02-25T13:57:05.444Z,13.97
2019-02-25T13:59:37.953Z,16.50
2019-02-25T14:02:09.493Z,14.60
2019-02-25T14:04:41.057Z,16.87
2019-02-25T14:07:12.661Z,13.00
2019-02-25T14:09:44.201Z,12.13
2019-02-25T14:12:15.835Z,13.47
2019-02-25T14:14:47.479Z,14.07
2019-02-25T14:17:23.740Z,13.40
2019-02-25T14:19:56.293Z,12.03
2019-02-25T14:22:29.428Z,13.97
2019-02-25T14:25:03.622Z,15.77
2019-02-25T14:27:35.816Z,13.93
2019-02-25T14:30:12.713Z,14.63
2019-02-25T14:32:44.828Z,14.20
2019-02-25T14:35:18.060Z,13.27
2019-02-25T14:37:50.886Z,16.43
2019-02-25T14:40:23.867Z,13.77
2019-02-25T14:43:17.257Z,14.90
2019-02-25T14:45:51.816Z,17.23
2019-02-25T14:48:22.990Z,16.77
2019-02-25T14:50:55.261Z,15.97
2019-02-25T14:53:26.951Z,16.13
2019-02-25T14:56:03.477Z,18.07
2019-02-25T14:58:35.698Z,17.10
2019-02-25T15:01:09.180Z,16.67
2019-02-25T15:03:40.863Z,18.23
2019-02-25T15:06:12.618Z,16.70
2019-02-25T15:08:46.379Z,18.87
2019-02-25T15:11:18.029Z,17.43
2019-02-25T15:13:50.855Z,18.97
2019-02-25T15:16:22.343Z,17.57
2019-02-25T15:18:58.606Z,17.57
2019-02-25T15:21:30.255Z,17.43
2019-02-25T15:24:04.001Z,18.00
2019-02-25T15:26:42.694Z,17.17
2019-02-25T15:29:11.814Z,16.97
2019-02-25T15:31:46.421Z,15.17
2019-02-25T15:34:19.778Z,16.10
2019-02-25T15:36:51.355Z,17.80
2019-02-25T15:39:23.514Z,14.37
2019-02-25T15:41:56.439Z,16.63
2019-02-25T15:44:28.030Z,16.57
2019-02-25T15:47:00.209Z,16.70
2019-02-25T15:49:33.186Z,16.87
2019-02-25T15:52:04.675Z,18.47
2019-02-25T15:54:37.256Z,18.13
2019-02-25T15:57:09.578Z,17.40
2019-02-25T15:59:41.145Z,17.00
2019-02-25T16:02:14.243Z,18.07
2019-02-25T16:04:48.343Z,19.73
2019-02-25T16:07:23.688Z,18.57
2019-02-25T16:09:57.114Z,18.67
2019-02-25T16:12:31.095Z,16.80
2019-02-25T16:15:02.522Z,18.20
2019-02-25T16:17:35.165Z,19.30
2019-02-25T16:20:09.118Z,19.73
2019-02-25T16:22:41.015Z,18.60
2019-02-25T16:25:15.869Z,20.30
2019-02-25T16:27:50.031Z,20.87
2019-02-25T16:30:23.578Z,21.83
2019-02-25T16:32:55.443Z,20.20
2019-02-25T16:35:27.047Z,21.17
2019-02-25T16:38:02.773Z,22.03
2019-02-25T16:40:38.373Z,20.20
2019-02-25T16:43:10.485Z,21.33
2019-02-25T16:45:43.946Z,20.93
2019-02-25T16:48:17.298Z,23.17
2019-02-25T16:50:49.949Z,21.87
2019-02-25T16:53:21.456Z,23.03
2019-02-25T16:55:53.534Z,21.83
2019-02-25T16:58:25.960Z,21.47
2019-02-25T17:01:01.205Z,22.47
2019-02-25T17:03:34.810Z,21.60
2019-02-25T17:06:07.392Z,22.73
2019-02-25T17:08:39.844Z,22.27
2019-02-25T17:11:12.924Z,24.37
2019-02-25T17:13:52.900Z,23.10
2019-02-25T17:16:24.464Z,24.03
2019-02-25T17:19:15.438Z,23.43
2019-02-25T17:21:47.049Z,22.40
2019-02-25T17:24:18.619Z,23.40
2019-02-25T17:26:50.240Z,24.00
2019-02-25T17:29:23.108Z,22.40
2019-02-25T17:31:56.939Z,23.37
2019-02-25T17:34:28.556Z,23.77
2019-02-25T17:37:00.605Z,22.73
2019-02-25T17:39:33.828Z,25.07
2019-02-25T17:42:08.153Z,24.73
2019-02-25T17:44:39.853Z,24.80
2019-02-25T17:47:13.275Z,24.30
2019-02-25T17:49:44.733Z,25.10
2019-02-25T17:52:18.401Z,24.00
2019-02-25T17:54:49.706Z,25.07
2019-02-25T17:57:21.433Z,26.63
2019-02-25T17:59:53.176Z,23.83
2019-02-25T18:02:26.153Z,26.20
2019-02-25T18:04:57.950Z,25.77
2019-02-25T18:07:29.990Z,28.37
2019-02-25T18:10:03.527Z,28.37
2019-02-25T18:12:38.636Z,28.03
2019-02-25T18:15:15.081Z,28.97
2019-02-25T18:17:47.720Z,26.60
2019-02-25T18:20:21.438Z,26.60
2019-02-25T18:22:53.333Z,27.50
2019-02-25T18:25:31.050Z,29.27
2019-02-25T18:28:04.421Z,28.37
2019-02-25T18:30:35.896Z,29.60
2019-02-25T18:33:08.118Z,29.33
2019-02-25T18:35:41.631Z,27.87
2019-02-25T18:38:13.567Z,28.50
2019-02-25T18:40:46.282Z,29.70
2019-02-25T18:43:20.061Z,27.17
2019-02-25T18:45:51.846Z,26.97
2019-02-25T18:48:25.343Z,26.97
2019-02-25T18:50:59.594Z,31.37
2019-02-25T18:53:32.552Z,25.67
2019-02-25T18:56:04.636Z,28.90
2019-02-25T18:58:37.549Z,26.97
2019-02-25T19:01:11.321Z,28.33
2019-02-25T19:03:43.375Z,25.50
2019-02-25T19:06:17.070Z,28.97
2019-02-25T19:08:49.861Z,28.47
2019-02-25T19:11:23.611Z,28.53
2019-02-25T19:13:56.732Z,29.27
2019-02-25T19:16:29.217Z,28.40
2019-02-25T19:19:04.003Z,28.30
2019-02-25T19:21:34.792Z,27.77
2019-02-25T19:24:07.616Z,30.70
2019-02-25T19:26:42.019Z,28.80
2019-02-25T19:29:15.297Z,28.80
2019-02-25T19:31:52.755Z,29.60
2019-02-25T19:34:24.773Z,29.23
2019-02-25T19:37:00.288Z,28.60
2019-02-25T19:39:29.953Z,28.07
2019-02-25T19:42:01.916Z,32.07
2019-02-25T19:44:34.348Z,31.30
2019-02-25T19:47:07.981Z,30.40
2019-02-25T19:49:41.329Z,30.43
2019-02-25T19:52:14.780Z,31.73
2019-02-25T19:54:48.834Z,30.00
2019-02-25T19:57:23.671Z,30.37
2019-02-25T19:59:57.825Z,29.70
2019-02-25T20:02:32.079Z,31.50
2019-02-25T20:05:04.693Z,31.77
2019-02-25T20:07:37.840Z,32.70
2019-02-25T20:10:11.605Z,32.47
2019-02-25T20:12:44.110Z,31.90
2019-02-25T20:15:20.330Z,31.30
2019-02-25T20:17:53.317Z,31.97
2019-02-25T20:20:28.662Z,31.33
2019-02-25T20:23:01.698Z,29.53
2019-02-25T20:25:33.800Z,31.83
2019-02-25T20:28:05.658Z,30.80
2019-02-25T20:30:37.365Z,32.17
2019-02-25T20:33:10.753Z,32.80
2019-02-25T20:35:44.982Z,29.30
2019-02-25T20:38:16.246Z,30.43
2019-02-25T20:40:50.812Z,29.80
2019-02-25T20:43:23.518Z,30.03
2019-02-25T20:45:56.436Z,31.13
2019-02-25T20:48:28.283Z,31.70
2019-02-25T20:51:04.244Z,32.37
2019-02-25T20:53:37.777Z,33.77
2019-02-25T20:56:09.778Z,32.73
2019-02-25T20:58:43.032Z,32.20
2019-02-25T21:01:16.331Z,33.10
2019-02-25T21:03:48.641Z,32.40
2019-02-25T21:06:23.533Z,34.17
2019-02-25T21:08:55.226Z,32.90
2019-02-25T21:11:26.902Z,32.97
2019-02-25T21:13:58.466Z,31.43
2019-02-25T21:16:33.107Z,33.50
2019-02-25T21:19:08.050Z,33.30
2019-02-25T21:21:40.271Z,33.17
2019-02-25T21:24:13.566Z,33.13
2019-02-25T21:26:45.444Z,32.40
2019-02-25T21:29:16.986Z,34.10
2019-02-25T21:31:50.076Z,35.70
2019-02-25T21:34:24.448Z,35.57
2019-02-25T21:36:56.712Z,36.57
2019-02-25T21:39:29.334Z,34.43
2019-02-25T21:42:00.927Z,36.40
2019-02-25T21:44:32.787Z,37.30
2019-02-25T21:47:06.347Z,34.63
2019-02-25T21:49:38.748Z,37.30
2019-02-25T21:52:13.622Z,37.30
2019-02-25T21:54:46.969Z,36.47
2019-02-25T21:57:18.568Z,38.47
2019-02-25T21:59:50.143Z,36.70
2019-02-25T22:02:21.749Z,37.40
2019-02-25T22:04:54.371Z,37.43
2019-02-25T22:07:27.324Z,38.83
2019-02-25T22:09:59.250Z,37.63
2019-02-25T22:12:32.731Z,40.43
2019-02-25T22:15:04.245Z,38.20
2019-02-25T22:17:38.047Z,38.20
2019-02-25T22:20:14.344Z,39.33
2019-02-25T22:22:46.254Z,40.20
2019-02-25T22:25:18.425Z,40.27
2019-02-25T22:27:50.481Z,42.07
2019-02-25T22:30:22.500Z,41.60
2019-02-25T22:32:54.186Z,40.37
2019-02-25T22:35:25.916Z,41.30
2019-02-25T22:37:58.098Z,39.63
2019-02-25T22:40:32.181Z,39.23
2019-02-25T22:43:04.033Z,42.47
2019-02-25T22:45:37.563Z,38.10
2019-02-25T22:48:11.614Z,38.87
2019-02-25T22:50:42.019Z,39.00
2019-02-25T22:53:13.533Z,41.47
2019-02-25T22:55:47.315Z,37.53
2019-02-25T22:58:18.387Z,38.77
2019-02-25T23:00:51.705Z,40.93
2019-02-25T23:03:25.669Z,38.93
2019-02-25T23:05:59.240Z,41.20
2019-02-25T23:08:30.943Z,39.23
2019-02-25T23:11:03.431Z,38.40
2019-02-25T23:13:34.955Z,40.03
2019-02-25T23:16:07.595Z,40.50
2019-02-25T23:18:39.146Z,37.77
2019-02-25T23:21:11.125Z,39.63
2019-02-25T23:23:42.611Z,39.83
2019-02-25T23:26:14.889Z,38.33
2019-02-25T23:28:48.847Z,42.23
2019-02-25T23:31:20.624Z,41.10
2019-02-25T23:33:55.293Z,40.60
2019-02-25T23:36:26.770Z,41.67
2019-02-25T23:38:59.563Z,41.40
2019-02-25T23:41:34.389Z,37.50
2019-02-25T23:44:07.150Z,41.50
2019-02-25T23:46:40.021Z,39.90
2019-02-25T23:49:11.819Z,40.33
2019-02-25T23:51:43.740Z,40.43
2019-02-25T23:54:18.293Z,40.00
2019-02-25T23:56:50.239Z,40.50
2019-02-25T23:59:24.730Z,41.00
